createdAt,value
2022-12-27T00:02:00.480Z,12.60
2022-12-27T00:05:02.209Z,15.40
2022-12-27T00:08:03.969Z,12.55
2022-12-27T00:11:11.538Z,14.40
2022-12-27T00:14:13.231Z,12.13
2022-12-27T00:17:14.896Z,11.68
2022-12-27T00:20:16.746Z,14.70
2022-12-27T00:23:18.376Z,17.25
2022-12-27T00:26:26.517Z,12.55
2022-12-27T00:29:28.260Z,12.97
2022-12-27T00:32:30.269Z,14.20
2022-12-27T00:35:31.894Z,14.85
2022-12-27T00:38:34.870Z,14.35
2022-12-27T00:41:36.535Z,11.90
2022-12-27T00:44:38.228Z,10.97
2022-12-27T00:47:40.279Z,11.18
2022-12-27T00:50:43.732Z,10.93
2022-12-27T00:53:46.410Z,11.63
2022-12-27T00:56:48.123Z,9.32
2022-12-27T00:59:49.808Z,11.90
2022-12-27T01:02:51.527Z,11.80
2022-12-27T01:05:53.306Z,13.25
2022-12-27T01:08:55.900Z,10.93
2022-12-27T01:11:57.731Z,13.40
2022-12-27T01:14:59.372Z,11.40
2022-12-27T01:18:01.008Z,10.30
2022-12-27T01:21:11.005Z,9.77
2022-12-27T01:24:12.677Z,12.07
2022-12-27T01:27:14.538Z,10.60
2022-12-27T01:30:16.220Z,10.00
2022-12-27T01:33:17.905Z,11.52
2022-12-27T01:36:22.916Z,12.07
2022-12-27T01:39:24.869Z,11.38
2022-12-27T01:42:46.049Z,10.65
2022-12-27T01:45:48.138Z,12.07
2022-12-27T01:48:50.421Z,10.88
2022-12-27T01:51:52.309Z,12.38
2022-12-27T01:54:57.825Z,8.88
2022-12-27T01:58:19.949Z,12.68
2022-12-27T02:01:32.276Z,11.23
2022-12-27T02:04:34.763Z,11.45
2022-12-27T02:08:19.611Z,19.42
2022-12-27T02:11:44.745Z,12.32
2022-12-27T02:14:49.182Z,14.65
2022-12-27T02:17:51.249Z,13.97
2022-12-27T02:21:18.466Z,10.80
2022-12-27T02:24:44.781Z,12.82
2022-12-27T02:27:59.971Z,14.48
2022-12-27T02:31:30.924Z,12.65
2022-12-27T02:35:14.544Z,16.57
2022-12-27T02:38:21.604Z,13.00
2022-12-27T02:41:43.719Z,13.65
2022-12-27T02:45:17.363Z,13.93
2022-12-27T02:48:37.742Z,13.35
2022-12-27T02:52:21.908Z,12.77
2022-12-27T02:55:32.737Z,14.98
2022-12-27T02:58:43.191Z,13.88
2022-12-27T03:02:06.475Z,12.98
2022-12-27T03:05:11.163Z,14.30
2022-12-27T03:08:34.543Z,16.43
2022-12-27T03:12:05.566Z,16.10
2022-12-27T03:15:49.990Z,16.90
2022-12-27T03:19:03.042Z,17.23
2022-12-27T03:22:26.169Z,13.45
2022-12-27T03:25:29.567Z,12.93
2022-12-27T03:28:51.196Z,15.20
2022-12-27T03:32:18.440Z,14.75
2022-12-27T03:35:23.069Z,16.48
2022-12-27T03:38:25.349Z,15.70
2022-12-27T03:41:52.375Z,14.47
2022-12-27T03:44:54.838Z,16.27
2022-12-27T03:48:04.913Z,17.30
2022-12-27T03:51:08.450Z,13.70
2022-12-27T03:54:26.145Z,15.52
2022-12-27T03:57:28.826Z,16.50
2022-12-27T04:00:30.690Z,15.55
2022-12-27T04:03:32.379Z,17.38
2022-12-27T04:06:34.040Z,16.27
2022-12-27T04:09:54.087Z,17.30
2022-12-27T04:13:14.470Z,15.97
2022-12-27T04:16:34.708Z,16.50
2022-12-27T04:19:54.908Z,16.92
2022-12-27T04:23:15.733Z,15.85
2022-12-27T04:26:36.223Z,13.05
2022-12-27T04:29:56.432Z,12.03
2022-12-27T04:33:16.549Z,11.13
2022-12-27T04:36:18.276Z,11.68
2022-12-27T04:39:24.755Z,12.18
2022-12-27T04:42:44.712Z,11.82
2022-12-27T04:46:06.636Z,14.03
2022-12-27T04:49:47.661Z,10.57
2022-12-27T04:53:07.955Z,12.35
2022-12-27T04:56:09.708Z,13.20
2022-12-27T04:59:30.048Z,12.73
2022-12-27T05:02:31.908Z,11.67
2022-12-27T05:05:35.441Z,12.73
2022-12-27T05:08:56.152Z,11.70
2022-12-27T05:12:16.447Z,15.82
2022-12-27T05:15:18.185Z,13.40
2022-12-27T05:18:19.905Z,14.10
2022-12-27T05:21:21.675Z,13.75
2022-12-27T05:24:41.854Z,16.20
2022-12-27T05:27:43.530Z,11.35
2022-12-27T05:30:45.197Z,12.68
2022-12-27T05:33:47.470Z,11.67
2022-12-27T05:36:49.154Z,16.55
2022-12-27T05:39:50.900Z,14.55
2022-12-27T05:42:52.881Z,13.40
2022-12-27T05:45:55.556Z,12.27
2022-12-27T05:48:57.209Z,12.50
2022-12-27T05:51:58.910Z,14.68
2022-12-27T05:55:00.556Z,12.90
2022-12-27T05:58:02.242Z,14.55
2022-12-27T06:01:12.061Z,20.40
2022-12-27T06:04:13.878Z,28.30
2022-12-27T06:07:16.387Z,37.40
2022-12-27T06:10:18.129Z,28.15
2022-12-27T06:13:19.816Z,20.05
2022-12-27T06:16:22.359Z,29.42
2022-12-27T06:19:24.249Z,33.33
2022-12-27T06:22:25.975Z,17.40
2022-12-27T06:25:27.845Z,14.35
2022-12-27T06:28:29.492Z,12.93
2022-12-27T06:31:31.556Z,15.43
2022-12-27T06:34:33.342Z,11.77
2022-12-27T06:37:35.060Z,9.40
2022-12-27T06:40:36.789Z,10.57
2022-12-27T06:43:39.072Z,9.90
2022-12-27T06:46:40.734Z,8.32
2022-12-27T06:49:42.417Z,9.30
2022-12-27T06:52:44.123Z,7.22
2022-12-27T06:55:45.793Z,6.97
2022-12-27T06:58:48.815Z,6.60
2022-12-27T07:01:50.614Z,6.63
2022-12-27T07:04:52.753Z,6.87
2022-12-27T07:07:54.668Z,7.82
2022-12-27T07:11:00.852Z,6.75
2022-12-27T07:14:03.071Z,11.00
2022-12-27T07:17:04.836Z,10.27
2022-12-27T07:20:07.491Z,10.70
2022-12-27T07:23:11.942Z,6.95
2022-12-27T07:26:22.428Z,7.97
2022-12-27T07:29:24.143Z,6.57
2022-12-27T07:32:25.836Z,6.80
2022-12-27T07:35:27.510Z,5.70
2022-12-27T07:38:29.245Z,5.45
2022-12-27T07:41:30.935Z,7.10
2022-12-27T07:44:32.687Z,5.93
2022-12-27T07:47:34.472Z,5.13
2022-12-27T07:50:36.344Z,3.80
2022-12-27T07:53:38.460Z,3.92
2022-12-27T07:56:40.102Z,2.95
2022-12-27T07:59:42.009Z,4.40
2022-12-27T08:02:43.765Z,3.17
2022-12-27T08:05:52.453Z,5.00
2022-12-27T08:08:55.272Z,4.68
2022-12-27T08:11:57.192Z,3.13
2022-12-27T08:14:59.588Z,3.88
2022-12-27T08:18:01.309Z,3.28
2022-12-27T08:21:03.035Z,2.30
2022-12-27T08:24:05.197Z,2.47
2022-12-27T08:27:07.537Z,3.03
2022-12-27T08:30:09.879Z,2.72
2022-12-27T08:33:12.063Z,2.17
2022-12-27T08:36:53.983Z,1.67
2022-12-27T08:39:35.511Z,2.08
2022-12-27T08:42:37.189Z,2.65
2022-12-27T08:45:40.028Z,1.90
2022-12-27T08:48:41.861Z,1.70
2022-12-27T08:51:43.578Z,3.50
2022-12-27T08:54:45.252Z,2.25
2022-12-27T08:57:47.230Z,1.80
2022-12-27T09:00:49.110Z,2.25
2022-12-27T09:03:51.490Z,1.98
2022-12-27T09:06:53.221Z,1.87
2022-12-27T09:09:54.881Z,1.88
2022-12-27T09:12:56.641Z,1.95
2022-12-27T09:15:58.317Z,1.88
2022-12-27T09:19:01.619Z,1.67
2022-12-27T09:22:03.513Z,1.30
2022-12-27T09:25:05.793Z,1.45
2022-12-27T09:28:09.376Z,1.30
2022-12-27T09:31:12.498Z,1.50
2022-12-27T09:34:14.545Z,1.15
2022-12-27T09:37:16.465Z,1.00
2022-12-27T09:40:21.357Z,1.20
2022-12-27T09:43:38.854Z,1.50
2022-12-27T09:46:43.329Z,0.90
2022-12-27T09:49:49.281Z,2.63
2022-12-27T09:53:22.235Z,0.90
2022-12-27T09:56:40.878Z,0.93
2022-12-27T09:59:52.889Z,0.90
2022-12-27T10:02:54.989Z,1.00
2022-12-27T10:06:05.501Z,1.30
2022-12-27T10:09:37.678Z,3.20
2022-12-27T10:13:04.325Z,0.90
2022-12-27T10:16:12.539Z,1.35
2022-12-27T10:19:29.518Z,0.90
2022-12-27T10:22:34.145Z,1.10
2022-12-27T10:25:36.575Z,1.30
2022-12-27T10:28:44.294Z,1.95
2022-12-27T10:31:46.344Z,1.23
2022-12-27T10:34:55.340Z,1.10
2022-12-27T10:37:58.991Z,1.10
2022-12-27T10:41:22.351Z,0.93
2022-12-27T10:44:24.316Z,1.35
2022-12-27T10:47:26.804Z,1.23
2022-12-27T10:50:29.921Z,1.25
2022-12-27T10:53:41.286Z,2.40
2022-12-27T10:56:44.877Z,2.30
2022-12-27T11:00:08.767Z,1.05
2022-12-27T11:03:19.042Z,0.90
2022-12-27T11:06:26.009Z,1.10
2022-12-27T11:09:31.117Z,0.50
2022-12-27T11:12:33.072Z,0.77
2022-12-27T11:15:40.770Z,0.90
2022-12-27T11:18:48.961Z,1.00
2022-12-27T11:21:52.966Z,0.80
2022-12-27T11:24:59.073Z,0.88
2022-12-27T11:28:05.255Z,0.90
2022-12-27T11:31:10.271Z,0.77
2022-12-27T11:34:16.956Z,1.00
2022-12-27T11:37:22.531Z,0.90
2022-12-27T11:40:35.757Z,1.20
2022-12-27T11:44:00.224Z,0.80
2022-12-27T11:47:20.547Z,1.45
2022-12-27T11:50:40.486Z,1.27
2022-12-27T11:54:02.678Z,1.05
2022-12-27T11:57:07.126Z,1.00
2022-12-27T12:00:27.149Z,1.30
2022-12-27T12:03:52.356Z,1.25
2022-12-27T12:07:15.338Z,2.75
2022-12-27T12:10:41.934Z,1.10
2022-12-27T12:14:05.909Z,0.82
2022-12-27T12:17:36.676Z,2.20
2022-12-27T12:20:50.712Z,2.50
2022-12-27T12:24:40.607Z,1.50
2022-12-27T12:28:57.185Z,3.10
2022-12-27T12:32:21.793Z,2.88
2022-12-27T12:35:48.593Z,1.17
2022-12-27T12:39:01.536Z,1.23
2022-12-27T12:42:08.893Z,1.88
2022-12-27T12:45:25.275Z,1.13
2022-12-27T12:48:57.555Z,1.33
2022-12-27T12:52:11.228Z,1.20
2022-12-27T12:55:30.949Z,1.00
2022-12-27T12:58:58.229Z,1.55
2022-12-27T13:02:20.440Z,1.27
2022-12-27T13:05:51.419Z,0.98
2022-12-27T13:09:02.701Z,6.37
2022-12-27T13:12:38.120Z,0.93
2022-12-27T13:16:23.831Z,1.45
2022-12-27T13:20:01.330Z,1.27
2022-12-27T13:23:11.678Z,3.70
2022-12-27T13:26:38.503Z,1.83
2022-12-27T13:30:04.521Z,0.80
2022-12-27T13:33:31.993Z,1.00
2022-12-27T13:36:52.088Z,0.95
2022-12-27T13:40:31.134Z,1.20
2022-12-27T13:44:02.313Z,0.90
2022-12-27T13:47:34.179Z,1.20
2022-12-27T13:50:51.691Z,1.60
2022-12-27T13:54:27.590Z,1.73
2022-12-27T13:57:35.671Z,1.17
2022-12-27T14:00:51.681Z,2.53
2022-12-27T14:04:20.243Z,1.35
2022-12-27T14:07:46.779Z,2.72
2022-12-27T14:10:55.327Z,1.65
2022-12-27T14:14:04.483Z,1.50
2022-12-27T14:17:31.695Z,3.10
2022-12-27T14:21:01.256Z,1.80
2022-12-27T14:24:24.717Z,3.55
2022-12-27T14:27:53.893Z,3.65
2022-12-27T14:31:23.405Z,3.58
2022-12-27T14:35:02.725Z,2.63
2022-12-27T14:38:39.700Z,1.80
2022-12-27T14:42:00.342Z,2.72
2022-12-27T14:45:15.410Z,4.10
2022-12-27T14:48:19.683Z,4.00
2022-12-27T14:51:50.409Z,5.53
2022-12-27T14:55:28.213Z,5.80
2022-12-27T14:58:51.764Z,6.55
2022-12-27T15:02:38.458Z,4.35
2022-12-27T15:05:49.297Z,2.75
2022-12-27T15:09:06.801Z,2.30
2022-12-27T15:12:30.692Z,1.92
2022-12-27T15:15:51.082Z,2.75
2022-12-27T15:18:59.024Z,1.52
2022-12-27T15:22:20.130Z,1.88
2022-12-27T15:25:46.077Z,6.43
2022-12-27T15:28:57.843Z,6.63
2022-12-27T15:32:04.560Z,3.65
2022-12-27T15:35:41.566Z,7.78
2022-12-27T15:38:53.918Z,5.18
2022-12-27T15:42:05.758Z,3.53
2022-12-27T15:45:32.601Z,4.25
2022-12-27T15:49:12.081Z,3.92
2022-12-27T15:52:28.439Z,3.47
2022-12-27T15:55:50.687Z,6.18
2022-12-27T15:59:29.593Z,12.97
2022-12-27T16:02:35.821Z,19.23
2022-12-27T16:05:42.935Z,16.50
2022-12-27T16:08:44.912Z,8.95
2022-12-27T16:12:07.749Z,7.80
2022-12-27T16:15:34.501Z,32.30
2022-12-27T16:18:54.252Z,29.83
2022-12-27T16:21:56.053Z,18.88
2022-12-27T16:24:59.564Z,11.93
2022-12-27T16:28:16.574Z,6.07
2022-12-27T16:31:26.376Z,5.67
2022-12-27T16:34:30.047Z,9.63
2022-12-27T16:37:43.110Z,13.27
2022-12-27T16:40:55.490Z,5.78
2022-12-27T16:44:00.199Z,3.75
2022-12-27T16:47:40.568Z,9.47
2022-12-27T16:51:12.639Z,11.55
2022-12-27T16:54:27.912Z,11.35
2022-12-27T16:57:44.542Z,7.05
2022-12-27T17:00:49.543Z,7.05
2022-12-27T17:03:55.415Z,6.30
2022-12-27T17:06:57.343Z,7.65
2022-12-27T17:10:27.778Z,4.68
2022-12-27T17:13:50.961Z,6.35
2022-12-27T17:17:01.271Z,4.53
2022-12-27T17:20:12.962Z,7.17
2022-12-27T17:23:15.303Z,7.25
2022-12-27T17:26:29.015Z,8.52
2022-12-27T17:29:46.628Z,6.20
2022-12-27T17:32:56.428Z,5.00
2022-12-27T17:36:13.742Z,5.73
2022-12-27T17:39:28.483Z,8.05
2022-12-27T17:43:09.728Z,6.60
2022-12-27T17:46:36.617Z,7.00
2022-12-27T17:49:38.668Z,6.25
2022-12-27T17:53:30.240Z,4.50
2022-12-27T17:57:03.205Z,5.70
2022-12-27T18:00:06.560Z,6.30
2022-12-27T18:03:10.152Z,6.85
2022-12-27T18:06:12.724Z,10.68
2022-12-27T18:09:43.369Z,18.17
2022-12-27T18:12:51.467Z,11.15
2022-12-27T18:15:53.822Z,8.60
2022-12-27T18:18:59.877Z,8.05
2022-12-27T18:22:02.736Z,7.22
2022-12-27T18:25:24.171Z,11.20
2022-12-27T18:28:32.904Z,9.85
2022-12-27T18:31:46.952Z,10.05
2022-12-27T18:34:59.709Z,10.27
2022-12-27T18:38:06.573Z,11.77
2022-12-27T18:41:15.472Z,8.20
2022-12-27T18:44:31.822Z,11.38
2022-12-27T18:47:39.818Z,8.70
2022-12-27T18:50:51.068Z,6.70
2022-12-27T18:53:53.061Z,10.43
2022-12-27T18:56:56.310Z,9.37
2022-12-27T19:00:12.652Z,8.13
2022-12-27T19:03:17.267Z,10.13
2022-12-27T19:06:19.125Z,11.00
2022-12-27T19:09:24.915Z,10.40
2022-12-27T19:12:38.322Z,9.17
2022-12-27T19:15:43.209Z,7.22
2022-12-27T19:18:51.179Z,10.00
2022-12-27T19:21:53.980Z,10.63
2022-12-27T19:25:00.582Z,8.05
2022-12-27T19:28:11.468Z,5.17
2022-12-27T19:31:21.703Z,5.78
2022-12-27T19:34:27.103Z,6.60
2022-12-27T19:37:31.777Z,7.55
2022-12-27T19:40:33.557Z,5.95
2022-12-27T19:43:46.208Z,6.30
2022-12-27T19:46:49.201Z,6.22
2022-12-27T19:49:50.927Z,8.40
2022-12-27T19:52:52.840Z,6.93
2022-12-27T19:55:54.567Z,6.28
2022-12-27T19:58:56.596Z,6.67
2022-12-27T20:01:58.592Z,7.07
2022-12-27T20:05:00.423Z,6.65
2022-12-27T20:08:06.245Z,8.90
2022-12-27T20:11:14.954Z,19.08
2022-12-27T20:14:17.980Z,18.33
2022-12-27T20:17:19.765Z,17.08
2022-12-27T20:20:21.449Z,12.07
2022-12-27T20:23:23.443Z,8.60
2022-12-27T20:26:25.830Z,8.90
2022-12-27T20:29:30.141Z,8.77
2022-12-27T20:32:32.053Z,13.98
2022-12-27T20:35:34.463Z,21.17
2022-12-27T20:38:39.240Z,14.63
2022-12-27T20:41:41.111Z,13.60
2022-12-27T20:44:42.973Z,8.23
2022-12-27T20:47:44.868Z,6.60
2022-12-27T20:50:46.588Z,9.23
2022-12-27T20:53:53.276Z,9.48
2022-12-27T20:56:54.940Z,6.35
2022-12-27T20:59:56.877Z,7.80
2022-12-27T21:02:59.039Z,6.38
2022-12-27T21:06:16.292Z,6.93
2022-12-27T21:09:17.982Z,7.97
2022-12-27T21:12:19.729Z,6.72
2022-12-27T21:15:21.445Z,8.07
2022-12-27T21:18:23.433Z,20.13
2022-12-27T21:21:28.743Z,19.23
2022-12-27T21:24:30.845Z,13.52
2022-12-27T21:27:32.577Z,25.33
2022-12-27T21:30:34.416Z,25.57
2022-12-27T21:33:36.340Z,11.07
2022-12-27T21:36:38.507Z,9.80
2022-12-27T21:39:40.363Z,10.20
2022-12-27T21:42:42.009Z,14.75
2022-12-27T21:45:43.641Z,16.27
2022-12-27T21:48:46.398Z,14.68
2022-12-27T21:51:48.172Z,12.57
2022-12-27T21:54:49.968Z,8.43
2022-12-27T21:57:51.595Z,8.63
2022-12-27T22:00:57.775Z,6.17
2022-12-27T22:04:00.116Z,6.35
2022-12-27T22:07:01.837Z,10.23
2022-12-27T22:10:03.797Z,9.88
2022-12-27T22:13:05.467Z,9.68
2022-12-27T22:16:11.610Z,12.60
2022-12-27T22:19:13.882Z,8.98
2022-12-27T22:22:15.585Z,9.90
2022-12-27T22:25:17.317Z,10.38
2022-12-27T22:28:19.001Z,11.32
2022-12-27T22:31:23.275Z,8.33
2022-12-27T22:34:24.929Z,8.88
2022-12-27T22:37:26.625Z,10.23
2022-12-27T22:40:40.838Z,8.20
2022-12-27T22:43:51.319Z,8.60
2022-12-27T22:50:14.893Z,10.27
2022-12-27T22:53:16.520Z,7.22
2022-12-27T22:56:26.766Z,6.32
2022-12-27T22:59:28.414Z,8.80
2022-12-27T23:02:30.557Z,10.07
2022-12-27T23:05:32.269Z,7.22
2022-12-27T23:08:35.633Z,4.18
2022-12-27T23:11:40.727Z,4.53
2022-12-27T23:14:42.434Z,6.20
2022-12-27T23:17:44.145Z,5.57
2022-12-27T23:21:21.382Z,6.35
2022-12-27T23:24:09.003Z,7.80
2022-12-27T23:27:10.732Z,3.92
2022-12-27T23:30:13.741Z,7.00
2022-12-27T23:33:15.926Z,5.57
2022-12-27T23:36:19.133Z,4.47
2022-12-27T23:39:20.798Z,6.88
2022-12-27T23:42:22.543Z,5.80
2022-12-27T23:45:24.591Z,6.10
2022-12-27T23:48:26.264Z,10.07
2022-12-27T23:51:29.314Z,5.95
2022-12-27T23:54:31.017Z,4.95
2022-12-27T23:57:32.788Z,8.52
